• Join FlightAware (Why Join?)
  • Login
  • US Flag 
08:07PM EDT


 

Airport Tracker/Info


-or-


 

Live Flight TrackerFlight Track Log ✈ DAL8889 ✈ 11-May-2014 ✈ KMSP - KMKE

Flight Track Log - Related Links

Times and Time Zones

All times are in EDT time to prevent confusion due to time zone crossing. See the DAL8889 flight status page for this flight to view local times or setup timezone preferences in your user account.

Time Position Orientation Groundspeed Altitude Reporting Facility
EDT Latitude Longitude Course Direction KTS MPH feet Rate Location/Type
04:03PM 44.8389 -93.1911 113° Southeast 200 230 3,900  Level Minneapolis Center
04:04PM 44.8019 -93.1028 120° Southeast 256 295 7,900 3,360 Climbing Minneapolis Center
04:05PM 44.7722 -92.9953 111° Southeast 289 333 10,900 2,820 Climbing Minneapolis Center
04:06PM 44.7364 -92.8611 111° Southeast 362 417 13,700 3,000 Climbing Minneapolis Center
04:07PM 44.6914 -92.7236 115° Southeast 384 442 17,200 2,940 Climbing Minneapolis Center
04:08PM 44.6756 -92.6018 113° Southeast  Level Estimated
04:08PM 44.6414 -92.5850 117° Southeast 395 455 19,800  Level Minneapolis Center
04:09PM 44.5864 -92.4414 118° Southeast 412 474 22,500 1,560 Climbing Minneapolis Center
04:10PM 44.5283 -92.2878 118° Southeast 440 506 23,000 240 Climbing Minneapolis Center
04:11PM 44.4694 -92.1264 117° Southeast 460 529 23,000  Level Minneapolis Center
04:12PM 44.4100 -91.9697 118° Southeast 460 529 23,000  Level Minneapolis Center
04:13PM 44.3450 -91.7967 118° Southeast 426 490 23,000 1,020 Level Minneapolis Center
04:14PM 44.2817 -91.6589 123° Southeast 425 489 25,100 1,920 Climbing Minneapolis Center
04:15PM 44.2147 -91.5169 123° Southeast 432 497 27,000 900 Climbing Minneapolis Center
04:16PM 44.1528 -91.3608 119° Southeast 453 521 27,000  Level Minneapolis Center
04:17PM 44.0881 -91.1872 117° Southeast 457 526 27,000  Level Minneapolis Center
04:18PM 44.0383 -91.0275 113° Southeast 456 525 27,000  Level Minneapolis Center
04:19PM 43.9878 -90.8686 114° Southeast 455 524 27,000  Level Minneapolis Center
04:20PM 43.9361 -90.7094 114° Southeast 455 524 27,000  Level Minneapolis Center
04:21PM 43.8844 -90.5486 114° Southeast 455 524 27,000  Level Minneapolis Center
04:22PM 43.8325 -90.3919 115° Southeast 454 522 27,000 -480 Level Minneapolis Center
04:23PM 43.7806 -90.2322 114° Southeast 454 522 26,100 -1,320 Descending Minneapolis Center
04:24PM 43.7183 -90.0431 114° Southeast 454 522 24,300 -1,080 Descending Minneapolis Center
04:25PM 43.6669 -89.8858 114° Southeast 453 521 24,000 -240 Descending Minneapolis Center
04:26PM 43.6233 -89.7603 116° Southeast 452 520 23,900 -1,020 Descending Chicago Center
04:27PM 43.5722 -89.6067 115° Southeast 447 514 22,100 -2,340 Descending Chicago Center
04:28PM 43.5269 -89.4686 114° Southeast 403 464 19,100 -2,700 Descending Chicago Center
04:29PM 43.4733 -89.3133 115° Southeast 379 436 16,600 -2,220 Descending Chicago Center
04:30PM 43.4300 -89.1856 115° Southeast 374 430 14,600 -1,860 Descending Chicago Center
04:31PM 43.3883 -89.0636 115° Southeast 359 413 12,800 -2,100 Descending Chicago Center
04:32PM 43.3467 -88.9431 115° Southeast 355 409 10,300 -1,380 Descending Chicago Center
04:33PM 43.3036 -88.8189 115° Southeast 359 413 10,000 -180 Descending Chicago Center
04:34PM 43.2508 -88.6692 116° Southeast 366 421 10,000  Level Chicago Center
04:35PM 43.2078 -88.5444 115° Southeast 366 421 10,000  Level Chicago Center
04:36PM 43.1672 -88.4261 115° Southeast 351 404 10,000 -840 Level Chicago Center
04:37PM 43.1322 -88.3269 116° Southeast 299 344 8,300 -1,680 Descending Chicago Center
04:38PM 43.1097 -88.2250 107° East 289 333 6,600 -1,620 Descending Chicago Center
04:39PM 43.1008 -88.1008 96° East 278 320 5,000 -1,140 Descending Chicago Center
04:41PM 43.0953 -88.0153 95° East 240 276 4,300 -720 Descending Chicago Center
04:42PM 43.0892 -87.9422 97° East 209 241 3,600 -780 Descending Chicago Center
04:43PM 43.0675 -87.8892 119° Southeast 203 234 2,800 -780 Descending Chicago Center
04:44PM 43.0294 -87.8786 169° South 164 189 2,100 -600 Descending Chicago Center
04:45PM 42.9917 -87.8844 186° South 144 166 1,600 -540 Descending Chicago Center
04:47PM 42.9469 -87.8971 180° South  Level Estimated
04:54PM 42.9469 -87.8971 180° South  Level Estimated